createdAt,value
2022-09-28T00:00:21.675Z,74.75
2022-09-28T00:03:13.870Z,74.79
2022-09-28T00:05:46.339Z,74.85
2022-09-28T00:08:17.978Z,74.96
2022-09-28T00:10:58.154Z,75.01
2022-09-28T00:13:31.824Z,75.07
2022-09-28T00:16:05.983Z,75.01
2022-09-28T00:18:37.657Z,74.89
2022-09-28T00:21:15.375Z,75.01
2022-09-28T00:24:04.918Z,74.93
2022-09-28T00:26:37.051Z,74.93
2022-09-28T00:29:16.469Z,74.83
2022-09-28T00:31:51.221Z,74.88
2022-09-28T00:34:23.079Z,74.92
2022-09-28T00:36:55.564Z,74.99
2022-09-28T00:39:27.498Z,75.07
2022-09-28T00:42:01.439Z,75.00
2022-09-28T00:44:40.851Z,75.01
2022-09-28T00:47:25.743Z,74.78
2022-09-28T00:50:01.944Z,74.73
2022-09-28T00:52:39.682Z,74.88
2022-09-28T00:55:15.235Z,74.92
2022-09-28T00:57:50.905Z,74.85
2022-09-28T01:00:22.952Z,74.87
2022-09-28T01:02:56.804Z,74.85
2022-09-28T01:05:29.904Z,74.84
2022-09-28T01:08:04.285Z,74.78
2022-09-28T01:10:36.040Z,74.73
2022-09-28T01:13:08.686Z,74.63
2022-09-28T01:15:51.166Z,74.63
2022-09-28T01:18:34.235Z,74.63
2022-09-28T01:21:12.273Z,74.48
2022-09-28T01:24:05.859Z,74.57
2022-09-28T01:27:00.144Z,74.53
2022-09-28T01:29:42.686Z,74.62
2022-09-28T01:32:25.021Z,74.59
2022-09-28T01:35:03.297Z,74.71
2022-09-28T01:37:40.434Z,74.58
2022-09-28T01:40:23.312Z,74.72
2022-09-28T01:42:59.662Z,74.57
2022-09-28T01:45:38.093Z,74.68
2022-09-28T01:48:12.172Z,74.54
2022-09-28T01:50:50.572Z,74.57
2022-09-28T01:53:27.419Z,74.60
2022-09-28T01:56:04.582Z,74.52
2022-09-28T01:58:41.282Z,74.56
2022-09-28T02:01:19.285Z,74.61
2022-09-28T02:03:58.104Z,74.51
2022-09-28T02:06:35.125Z,74.50
2022-09-28T02:09:12.632Z,74.30
2022-09-28T02:11:52.148Z,74.39
2022-09-28T02:14:26.041Z,74.42
2022-09-28T02:16:59.139Z,74.48
2022-09-28T02:19:38.991Z,74.28
2022-09-28T02:22:25.876Z,74.55
2022-09-28T02:25:00.280Z,74.62
2022-09-28T02:27:40.819Z,74.72
2022-09-28T02:30:15.004Z,74.77
2022-09-28T02:32:53.083Z,74.80
2022-09-28T02:35:25.032Z,74.68
2022-09-28T02:37:56.999Z,74.68
2022-09-28T02:40:32.900Z,74.56
2022-09-28T02:43:16.542Z,74.50
2022-09-28T02:46:12.756Z,74.56
2022-09-28T02:49:20.486Z,74.54
2022-09-28T02:52:03.916Z,74.71
2022-09-28T02:54:49.461Z,74.69
2022-09-28T02:57:32.573Z,74.74
2022-09-28T03:00:15.930Z,74.67
2022-09-28T03:02:57.874Z,74.73
2022-09-28T03:05:40.897Z,74.70
2022-09-28T03:08:19.794Z,74.67
2022-09-28T03:10:59.675Z,74.71
2022-09-28T03:13:32.057Z,74.61
2022-09-28T03:16:15.246Z,74.66
2022-09-28T03:18:47.355Z,74.68
2022-09-28T03:21:21.479Z,74.64
2022-09-28T03:23:53.005Z,74.68
2022-09-28T03:26:25.430Z,74.68
2022-09-28T03:28:56.951Z,74.75
2022-09-28T03:31:29.369Z,74.83
2022-09-28T03:34:01.230Z,74.70
2022-09-28T03:36:32.844Z,74.87
2022-09-28T03:39:04.557Z,74.94
2022-09-28T03:41:38.549Z,74.97
2022-09-28T03:44:10.064Z,74.78
2022-09-28T03:46:41.825Z,74.81
2022-09-28T03:49:13.490Z,74.88
2022-09-28T03:51:46.789Z,74.87
2022-09-28T03:54:18.987Z,74.91
2022-09-28T03:56:51.364Z,74.98
2022-09-28T03:59:22.918Z,75.17
2022-09-28T04:01:54.885Z,75.09
2022-09-28T04:04:26.511Z,75.15
2022-09-28T04:06:58.052Z,75.06
2022-09-28T04:09:29.617Z,74.94
2022-09-28T04:12:04.609Z,74.86
2022-09-28T04:14:36.370Z,74.86
2022-09-28T04:17:07.926Z,74.91
2022-09-28T04:19:39.479Z,74.98
2022-09-28T04:22:11.816Z,74.83
2022-09-28T04:24:43.696Z,74.77
2022-09-28T04:27:32.953Z,74.92
2022-09-28T04:30:05.215Z,74.92
2022-09-28T04:32:41.678Z,74.79
2022-09-28T04:35:14.526Z,74.74
2022-09-28T04:37:46.114Z,74.68
2022-09-28T04:40:17.863Z,74.56
2022-09-28T04:42:57.101Z,74.67
2022-09-28T04:45:28.851Z,74.64
2022-09-28T04:48:00.669Z,74.62
2022-09-28T04:50:32.193Z,74.68
2022-09-28T04:53:05.559Z,74.75
2022-09-28T04:55:37.099Z,74.73
2022-09-28T04:58:09.520Z,74.58
2022-09-28T05:00:41.055Z,74.67
2022-09-28T05:03:14.361Z,74.73
2022-09-28T05:05:49.029Z,74.67
2022-09-28T05:08:20.879Z,74.48
2022-09-28T05:11:00.553Z,74.51
2022-09-28T05:13:35.274Z,74.62
2022-09-28T05:16:06.993Z,74.49
2022-09-28T05:18:38.748Z,74.36
2022-09-28T05:21:13.825Z,74.58
2022-09-28T05:23:49.429Z,74.46
2022-09-28T05:26:21.909Z,74.38
2022-09-28T05:28:53.590Z,74.37
2022-09-28T05:31:27.246Z,74.33
2022-09-28T05:34:00.677Z,74.25
2022-09-28T05:36:36.407Z,74.11
2022-09-28T05:39:12.086Z,74.07
2022-09-28T05:41:43.726Z,74.01
2022-09-28T05:44:15.513Z,73.88
2022-09-28T05:46:47.375Z,73.61
2022-09-28T05:49:18.936Z,73.65
2022-09-28T05:51:50.623Z,73.66
2022-09-28T05:54:22.474Z,73.74
2022-09-28T05:56:54.089Z,73.72
2022-09-28T05:59:25.762Z,73.83
2022-09-28T06:01:57.350Z,73.61
2022-09-28T06:04:29.600Z,73.52
2022-09-28T06:07:01.590Z,73.58
2022-09-28T06:09:33.354Z,73.58
2022-09-28T06:12:05.522Z,73.54
2022-09-28T06:14:40.693Z,73.58
2022-09-28T06:17:13.377Z,73.42
2022-09-28T06:19:45.479Z,73.31
2022-09-28T06:22:17.082Z,73.44
2022-09-28T06:24:48.744Z,73.55
2022-09-28T06:27:20.301Z,73.59
2022-09-28T06:29:52.989Z,73.46
2022-09-28T06:32:24.555Z,73.54
2022-09-28T06:34:56.630Z,73.54
2022-09-28T06:37:28.990Z,73.59
2022-09-28T06:40:01.551Z,73.55
2022-09-28T06:42:33.327Z,73.33
2022-09-28T06:45:06.128Z,73.21
2022-09-28T06:47:38.264Z,73.15
2022-09-28T06:50:17.542Z,73.20
2022-09-28T06:52:57.313Z,73.04
2022-09-28T06:55:29.525Z,72.78
2022-09-28T06:58:02.265Z,73.00
2022-09-28T07:00:38.674Z,72.80
2022-09-28T07:03:13.593Z,72.69
2022-09-28T07:05:47.344Z,72.70
2022-09-28T07:08:19.738Z,72.60
2022-09-28T07:10:58.680Z,72.50
2022-09-28T07:13:50.991Z,72.54
2022-09-28T07:16:26.881Z,72.37
2022-09-28T07:18:59.875Z,72.45
2022-09-28T07:21:32.798Z,72.61
2022-09-28T07:24:05.698Z,72.56
2022-09-28T07:26:37.339Z,72.49
2022-09-28T07:29:09.113Z,72.61
2022-09-28T07:31:41.872Z,72.52
2022-09-28T07:34:13.891Z,72.33
2022-09-28T07:36:45.553Z,72.28
2022-09-28T07:39:17.309Z,72.27
2022-09-28T07:41:49.017Z,72.12
2022-09-28T07:44:20.631Z,72.12
2022-09-28T07:46:53.085Z,72.03
2022-09-28T07:49:24.626Z,71.87
2022-09-28T07:51:56.560Z,71.94
2022-09-28T07:54:28.065Z,71.93
2022-09-28T07:57:01.802Z,71.58
2022-09-28T07:59:33.657Z,71.18
2022-09-28T08:02:06.028Z,70.83
2022-09-28T08:04:37.659Z,70.66
2022-09-28T08:07:12.678Z,70.20
2022-09-28T08:09:44.334Z,70.01
2022-09-28T08:12:18.466Z,69.63
2022-09-28T08:14:52.308Z,69.35
2022-09-28T08:17:24.061Z,69.55
2022-09-28T08:20:13.507Z,69.06
2022-09-28T08:22:46.423Z,68.71
2022-09-28T08:25:18.063Z,68.71
2022-09-28T08:27:49.681Z,68.45
2022-09-28T08:30:21.355Z,68.21
2022-09-28T08:32:53.888Z,68.33
2022-09-28T08:35:26.375Z,68.38
2022-09-28T08:37:57.998Z,68.20
2022-09-28T08:40:31.231Z,67.31
2022-09-28T08:43:08.248Z,67.35
2022-09-28T08:45:39.891Z,67.67
2022-09-28T08:48:37.789Z,67.70
2022-09-28T08:51:16.131Z,67.70
2022-09-28T08:53:54.316Z,67.18
2022-09-28T08:56:31.903Z,66.44
2022-09-28T08:59:06.638Z,66.07
2022-09-28T09:01:44.026Z,66.41
2022-09-28T09:04:16.216Z,66.23
2022-09-28T09:07:17.867Z,66.05
2022-09-28T09:10:00.453Z,65.65
2022-09-28T09:12:42.479Z,64.43
2022-09-28T09:15:34.953Z,64.43
2022-09-28T09:18:20.093Z,64.23
2022-09-28T09:20:57.641Z,64.35
2022-09-28T09:23:39.272Z,64.04
2022-09-28T09:26:23.976Z,63.28
2022-09-28T09:29:24.024Z,63.33
2022-09-28T09:32:10.578Z,62.28
2022-09-28T09:34:53.850Z,62.13
2022-09-28T09:37:47.432Z,60.92
2022-09-28T09:40:30.484Z,60.91
2022-09-28T09:43:19.784Z,61.10
2022-09-28T09:46:03.781Z,61.21
2022-09-28T09:48:41.340Z,60.99
2022-09-28T09:51:20.904Z,60.21
2022-09-28T09:54:00.234Z,59.40
2022-09-28T09:56:38.578Z,58.61
2022-09-28T09:59:15.238Z,59.77
2022-09-28T10:01:47.809Z,59.88
2022-09-28T10:04:25.129Z,59.34
2022-09-28T10:07:07.640Z,59.39
2022-09-28T10:09:42.463Z,59.80
2022-09-28T10:12:23.822Z,59.50
2022-09-28T10:14:56.175Z,59.38
2022-09-28T10:17:28.032Z,58.71
2022-09-28T10:19:59.635Z,58.48
2022-09-28T10:22:32.406Z,58.16
2022-09-28T10:25:06.694Z,58.15
2022-09-28T10:27:45.446Z,57.97
2022-09-28T10:30:23.777Z,57.24
2022-09-28T10:32:59.569Z,56.59
2022-09-28T10:35:41.417Z,58.07
2022-09-28T10:38:19.626Z,57.99
2022-09-28T10:40:55.255Z,57.32
2022-09-28T10:43:30.581Z,56.84
2022-09-28T10:46:08.838Z,57.22
2022-09-28T10:48:57.881Z,57.74
2022-09-28T10:51:44.607Z,57.47
2022-09-28T10:54:21.383Z,57.23
2022-09-28T10:56:54.576Z,57.53
2022-09-28T10:59:40.887Z,58.16
2022-09-28T11:02:26.117Z,58.02
2022-09-28T11:05:01.174Z,57.99
2022-09-28T11:07:45.354Z,58.10
2022-09-28T11:10:25.194Z,58.03
2022-09-28T11:12:59.183Z,57.27
2022-09-28T11:15:33.646Z,57.60
2022-09-28T11:18:27.060Z,57.62
2022-09-28T11:21:12.998Z,57.52
2022-09-28T11:23:58.890Z,57.48
2022-09-28T11:26:35.609Z,57.62
2022-09-28T11:29:08.726Z,57.45
2022-09-28T11:31:40.498Z,57.19
2022-09-28T11:34:31.024Z,57.38
2022-09-28T11:37:36.769Z,57.10
2022-09-28T11:40:30.142Z,57.66
2022-09-28T11:43:16.716Z,57.49
2022-09-28T11:45:56.307Z,57.57
2022-09-28T11:48:33.503Z,58.05
2022-09-28T11:51:14.213Z,58.32
2022-09-28T11:53:51.228Z,58.36
2022-09-28T11:56:36.352Z,58.43
2022-09-28T11:59:13.603Z,58.06
2022-09-28T12:01:52.457Z,57.97
2022-09-28T12:04:27.856Z,58.13
2022-09-28T12:07:05.134Z,57.32
2022-09-28T12:09:41.410Z,57.38
2022-09-28T12:12:22.518Z,57.38
2022-09-28T12:14:53.983Z,56.70
2022-09-28T12:17:32.274Z,56.94
2022-09-28T12:20:13.750Z,56.92
2022-09-28T12:22:52.381Z,56.92
2022-09-28T12:25:26.405Z,57.09
2022-09-28T12:28:02.400Z,56.90
2022-09-28T12:30:40.616Z,56.97
2022-09-28T12:33:15.513Z,57.04
2022-09-28T12:36:06.924Z,57.38
2022-09-28T12:39:14.792Z,57.27
2022-09-28T12:41:54.100Z,57.49
2022-09-28T12:44:42.683Z,57.68
2022-09-28T12:47:36.666Z,57.33
2022-09-28T12:50:39.618Z,57.34
2022-09-28T12:53:31.197Z,57.35
2022-09-28T12:56:06.524Z,57.70
2022-09-28T12:59:01.554Z,57.66
2022-09-28T13:02:02.447Z,58.58
2022-09-28T13:05:00.305Z,59.01
2022-09-28T13:07:39.851Z,59.58
2022-09-28T13:10:32.770Z,59.92
2022-09-28T13:13:24.473Z,60.05
2022-09-28T13:16:03.746Z,60.30
2022-09-28T13:18:42.897Z,60.57
2022-09-28T13:21:28.351Z,60.35
2022-09-28T13:24:27.910Z,60.45
2022-09-28T13:27:04.470Z,60.92
2022-09-28T13:29:36.929Z,61.21
2022-09-28T13:32:12.695Z,61.94
2022-09-28T13:34:48.445Z,62.27
2022-09-28T13:37:26.636Z,62.58
2022-09-28T13:39:59.270Z,62.60
2022-09-28T13:42:54.258Z,63.20
2022-09-28T13:45:48.860Z,63.03
2022-09-28T13:48:23.629Z,62.98
2022-09-28T13:51:11.633Z,63.26
2022-09-28T13:54:19.071Z,63.54
2022-09-28T13:56:59.570Z,64.11
2022-09-28T13:59:33.901Z,64.54
2022-09-28T14:02:21.080Z,64.26
2022-09-28T14:04:58.895Z,64.28
2022-09-28T14:07:59.315Z,65.16
2022-09-28T14:10:52.083Z,65.07
2022-09-28T14:13:57.540Z,65.19
2022-09-28T14:16:31.953Z,65.34
2022-09-28T14:19:08.261Z,65.25
2022-09-28T14:21:58.231Z,65.39
2022-09-28T14:24:51.823Z,65.24
2022-09-28T14:27:46.226Z,65.33
2022-09-28T14:30:29.264Z,65.37
2022-09-28T14:33:13.390Z,65.32
2022-09-28T14:35:49.868Z,65.58
2022-09-28T14:38:41.910Z,65.66
2022-09-28T14:41:29.522Z,65.50
2022-09-28T14:44:05.326Z,65.63
2022-09-28T14:46:40.538Z,65.93
2022-09-28T14:49:42.926Z,66.00
2022-09-28T14:52:19.254Z,66.18
2022-09-28T14:54:58.380Z,66.44
2022-09-28T14:57:32.462Z,66.38
2022-09-28T15:00:21.421Z,66.53
2022-09-28T15:02:55.628Z,66.65
2022-09-28T15:05:31.935Z,66.93
2022-09-28T15:08:05.559Z,67.18
2022-09-28T15:10:42.088Z,67.33
2022-09-28T15:13:23.288Z,67.11
2022-09-28T15:16:00.921Z,67.51
2022-09-28T15:19:08.545Z,68.03
2022-09-28T15:21:42.126Z,68.09
2022-09-28T15:24:31.863Z,68.69
2022-09-28T15:27:05.831Z,68.75
2022-09-28T15:29:37.826Z,68.95
2022-09-28T15:32:25.884Z,68.81
2022-09-28T15:34:58.659Z,68.98
2022-09-28T15:37:40.296Z,69.26
2022-09-28T15:40:20.698Z,69.12
2022-09-28T15:42:59.305Z,69.71
2022-09-28T15:45:37.810Z,69.58
2022-09-28T15:48:31.117Z,69.53
2022-09-28T15:51:11.049Z,69.59
2022-09-28T15:53:56.110Z,69.78
2022-09-28T15:56:28.488Z,69.60
2022-09-28T15:59:20.113Z,69.65
2022-09-28T16:02:08.099Z,69.51
2022-09-28T16:04:44.354Z,69.43
2022-09-28T16:07:25.246Z,69.59
2022-09-28T16:10:06.268Z,69.88
2022-09-28T16:12:46.605Z,69.92
2022-09-28T16:15:24.308Z,70.02
2022-09-28T16:18:00.742Z,70.01
2022-09-28T16:20:35.654Z,70.00
2022-09-28T16:23:21.414Z,69.92
2022-09-28T16:25:56.126Z,70.07
2022-09-28T16:28:51.865Z,69.99
2022-09-28T16:31:33.304Z,69.98
2022-09-28T16:34:20.777Z,70.16
2022-09-28T16:36:53.058Z,69.94
2022-09-28T16:39:25.536Z,70.23
2022-09-28T16:42:02.946Z,70.13
2022-09-28T16:44:36.013Z,70.45
2022-09-28T16:47:08.937Z,70.48
2022-09-28T16:49:41.928Z,70.49
2022-09-28T16:52:34.703Z,70.71
2022-09-28T16:55:39.335Z,70.69
2022-09-28T16:58:13.133Z,70.98
2022-09-28T17:00:47.468Z,71.29
2022-09-28T17:03:20.132Z,70.90
2022-09-28T17:05:52.462Z,71.21
2022-09-28T17:08:25.807Z,71.40
2022-09-28T17:11:19.200Z,71.45
2022-09-28T17:13:51.978Z,71.77
2022-09-28T17:16:57.312Z,71.76
2022-09-28T17:19:21.980Z,71.86
2022-09-28T17:21:55.300Z,71.98
2022-09-28T17:24:26.962Z,71.75
2022-09-28T17:27:00.854Z,71.57
2022-09-28T17:29:32.814Z,71.65
2022-09-28T17:32:09.328Z,71.51
2022-09-28T17:34:40.968Z,71.23
2022-09-28T17:37:15.749Z,71.23
2022-09-28T17:39:47.337Z,71.18
2022-09-28T17:42:19.033Z,71.33
2022-09-28T17:44:50.677Z,71.38
2022-09-28T17:47:22.524Z,71.27
2022-09-28T17:49:54.438Z,71.29
2022-09-28T17:52:26.931Z,71.38
2022-09-28T17:54:58.501Z,71.33
2022-09-28T17:57:30.178Z,71.38
2022-09-28T18:00:02.020Z,71.53
2022-09-28T18:02:33.919Z,71.69
2022-09-28T18:05:06.038Z,71.77
2022-09-28T18:07:38.010Z,71.43
2022-09-28T18:10:14.381Z,71.45
2022-09-28T18:12:47.742Z,71.51
2022-09-28T18:15:20.446Z,71.47
2022-09-28T18:17:52.534Z,71.56
2022-09-28T18:20:24.345Z,71.70
2022-09-28T18:22:56.991Z,71.79
2022-09-28T18:25:29.986Z,71.67
2022-09-28T18:28:02.165Z,71.78
2022-09-28T18:30:34.411Z,71.83
2022-09-28T18:33:06.658Z,72.05
2022-09-28T18:35:40.742Z,72.25
2022-09-28T18:38:12.853Z,72.29
2022-09-28T18:40:44.792Z,72.43
2022-09-28T18:43:18.661Z,72.34
2022-09-28T18:45:50.460Z,72.51
2022-09-28T18:48:22.388Z,72.44
2022-09-28T18:50:54.320Z,72.46
2022-09-28T18:53:26.361Z,72.48
2022-09-28T18:55:58.226Z,72.62
2022-09-28T18:58:30.929Z,72.77
2022-09-28T19:01:28.412Z,72.78
2022-09-28T19:03:59.273Z,72.79
2022-09-28T19:06:32.258Z,72.77
2022-09-28T19:09:04.926Z,72.79
2022-09-28T19:11:36.784Z,72.93
2022-09-28T19:14:11.220Z,72.79
2022-09-28T19:16:45.113Z,72.83
2022-09-28T19:19:19.252Z,72.77
2022-09-28T19:21:51.307Z,72.86
2022-09-28T19:24:23.247Z,72.69
2022-09-28T19:26:55.022Z,72.66
2022-09-28T19:29:27.171Z,72.64
2022-09-28T19:31:59.009Z,72.67
2022-09-28T19:34:30.883Z,72.81
2022-09-28T19:37:03.974Z,72.85
2022-09-28T19:39:36.402Z,72.77
2022-09-28T19:42:08.420Z,72.96
2022-09-28T19:44:40.514Z,73.02
2022-09-28T19:47:13.139Z,73.03
2022-09-28T19:49:45.303Z,73.09
2022-09-28T19:52:17.661Z,73.04
2022-09-28T19:54:54.516Z,73.15
2022-09-28T19:57:27.806Z,73.16
2022-09-28T20:00:03.165Z,73.12
2022-09-28T20:03:03.644Z,73.28
2022-09-28T20:05:38.222Z,73.16
2022-09-28T20:08:10.221Z,73.00
2022-09-28T20:10:50.111Z,73.05
2022-09-28T20:13:22.625Z,73.00
2022-09-28T20:15:54.763Z,72.98
2022-09-28T20:18:27.594Z,73.12
2022-09-28T20:21:07.887Z,73.10
2022-09-28T20:23:40.564Z,73.19
2022-09-28T20:26:13.856Z,73.26
2022-09-28T20:28:45.821Z,73.29
2022-09-28T20:31:21.217Z,73.16
2022-09-28T20:33:53.488Z,73.10
2022-09-28T20:36:26.409Z,73.03
2022-09-28T20:38:58.710Z,73.19
2022-09-28T20:41:35.673Z,73.28
2022-09-28T20:44:08.528Z,73.30
2022-09-28T20:46:40.618Z,73.16
2022-09-28T20:49:12.357Z,73.24
2022-09-28T20:51:44.659Z,73.26
2022-09-28T20:54:16.469Z,73.22
2022-09-28T20:56:48.370Z,73.40
2022-09-28T20:59:22.747Z,73.45
2022-09-28T21:01:54.882Z,73.50
2022-09-28T21:04:27.122Z,73.59
2022-09-28T21:06:58.930Z,73.76
2022-09-28T21:09:32.214Z,73.56
2022-09-28T21:12:05.901Z,73.55
2022-09-28T21:14:37.764Z,73.76
2022-09-28T21:17:09.520Z,73.78
2022-09-28T21:19:41.232Z,73.78
2022-09-28T21:22:13.911Z,73.95
2022-09-28T21:24:45.622Z,74.10
2022-09-28T21:27:17.444Z,73.97
2022-09-28T21:29:49.495Z,74.08
2022-09-28T21:32:22.994Z,74.02
2022-09-28T21:34:55.851Z,74.07
2022-09-28T21:37:27.678Z,74.14
2022-09-28T21:39:59.606Z,74.08
2022-09-28T21:42:31.356Z,74.08
2022-09-28T21:45:03.129Z,73.95
2022-09-28T21:47:35.395Z,74.00
2022-09-28T21:50:10.728Z,74.03
2022-09-28T21:52:44.120Z,74.08
2022-09-28T21:55:16.137Z,74.13
2022-09-28T21:57:50.738Z,74.01
2022-09-28T22:00:24.379Z,74.09
2022-09-28T22:03:01.339Z,74.24
2022-09-28T22:05:33.934Z,74.19
2022-09-28T22:08:05.949Z,74.21
2022-09-28T22:10:37.866Z,74.21
2022-09-28T22:13:11.248Z,74.37
2022-09-28T22:15:43.117Z,74.31
2022-09-28T22:18:15.763Z,74.31
2022-09-28T22:20:47.534Z,74.29
2022-09-28T22:23:20.997Z,74.29
2022-09-28T22:25:58.158Z,74.35
2022-09-28T22:28:30.243Z,74.34
2022-09-28T22:31:02.303Z,74.29
2022-09-28T22:33:35.042Z,74.30
2022-09-28T22:36:07.966Z,74.30
2022-09-28T22:38:40.273Z,74.26
2022-09-28T22:41:12.164Z,74.39
2022-09-28T22:43:44.328Z,74.23
2022-09-28T22:46:18.538Z,74.18
2022-09-28T22:48:52.745Z,74.22
2022-09-28T22:51:26.115Z,74.30
2022-09-28T22:53:59.708Z,74.24
2022-09-28T22:56:31.679Z,74.33
2022-09-28T22:59:03.536Z,74.36
2022-09-28T23:01:36.888Z,74.33
2022-09-28T23:04:11.789Z,74.45
2022-09-28T23:06:43.485Z,74.41
2022-09-28T23:09:15.434Z,74.53
2022-09-28T23:11:47.354Z,74.48
2022-09-28T23:14:20.128Z,74.60
2022-09-28T23:16:51.852Z,74.62
2022-09-28T23:19:23.609Z,74.59
2022-09-28T23:21:55.582Z,74.62
2022-09-28T23:24:28.981Z,74.68
2022-09-28T23:27:00.779Z,74.67
2022-09-28T23:29:32.659Z,74.76
2022-09-28T23:32:04.659Z,74.80
2022-09-28T23:34:37.995Z,74.77
2022-09-28T23:37:09.989Z,74.89
2022-09-28T23:39:42.440Z,74.71
2022-09-28T23:42:21.158Z,74.75
2022-09-28T23:44:53.855Z,74.89
2022-09-28T23:47:25.638Z,74.91
2022-09-28T23:49:58.221Z,75.01
2022-09-28T23:52:30.424Z,75.08
2022-09-28T23:55:03.382Z,75.13
2022-09-28T23:57:35.131Z,75.22
